sensor_id;sensor_type;location;lat;lon;timestamp;P1;durP1;ratioP1;P2;durP2;ratioP2
10248;SDS011;5169;50.560;9.714;2024-02-21T00:01:53;126.17;;;42.40;;
10248;SDS011;5169;50.560;9.714;2024-02-21T00:04:18;135.83;;;43.50;;
10248;SDS011;5169;50.560;9.714;2024-02-21T00:06:46;134.93;;;42.53;;
10248;SDS011;5169;50.560;9.714;2024-02-21T00:09:11;129.07;;;42.97;;
10248;SDS011;5169;50.560;9.714;2024-02-21T00:11:37;130.47;;;43.63;;
10248;SDS011;5169;50.560;9.714;2024-02-21T00:14:05;126.70;;;42.80;;
10248;SDS011;5169;50.560;9.714;2024-02-21T00:16:32;130.10;;;42.57;;
10248;SDS011;5169;50.560;9.714;2024-02-21T00:18:58;123.50;;;41.90;;
10248;SDS011;5169;50.560;9.714;2024-02-21T00:21:24;128.77;;;42.67;;
10248;SDS011;5169;50.560;9.714;2024-02-21T00:23:52;127.00;;;42.33;;
10248;SDS011;5169;50.560;9.714;2024-02-21T00:26:19;125.80;;;42.40;;
10248;SDS011;5169;50.560;9.714;2024-02-21T00:28:45;120.10;;;41.70;;
10248;SDS011;5169;50.560;9.714;2024-02-21T00:31:11;127.37;;;42.43;;
10248;SDS011;5169;50.560;9.714;2024-02-21T00:33:36;121.80;;;41.67;;
10248;SDS011;5169;50.560;9.714;2024-02-21T00:36:02;129.07;;;43.00;;
10248;SDS011;5169;50.560;9.714;2024-02-21T00:38:28;117.93;;;41.40;;
10248;SDS011;5169;50.560;9.714;2024-02-21T00:40:55;130.17;;;43.10;;
10248;SDS011;5169;50.560;9.714;2024-02-21T00:43:21;128.60;;;42.63;;
10248;SDS011;5169;50.560;9.714;2024-02-21T00:45:48;118.60;;;41.13;;
10248;SDS011;5169;50.560;9.714;2024-02-21T00:48:17;118.57;;;42.23;;
10248;SDS011;5169;50.560;9.714;2024-02-21T00:50:42;128.10;;;43.23;;
10248;SDS011;5169;50.560;9.714;2024-02-21T00:53:08;121.37;;;41.93;;
10248;SDS011;5169;50.560;9.714;2024-02-21T00:55:36;116.80;;;41.63;;
10248;SDS011;5169;50.560;9.714;2024-02-21T00:58:01;120.93;;;41.67;;
10248;SDS011;5169;50.560;9.714;2024-02-21T01:00:27;118.80;;;41.70;;
10248;SDS011;5169;50.560;9.714;2024-02-21T01:02:52;120.83;;;41.33;;
10248;SDS011;5169;50.560;9.714;2024-02-21T01:05:18;118.13;;;40.77;;
10248;SDS011;5169;50.560;9.714;2024-02-21T01:07:45;122.63;;;41.93;;
10248;SDS011;5169;50.560;9.714;2024-02-21T01:10:15;130.60;;;42.90;;
10248;SDS011;5169;50.560;9.714;2024-02-21T01:12:44;121.67;;;41.30;;
10248;SDS011;5169;50.560;9.714;2024-02-21T01:15:12;124.90;;;42.13;;
10248;SDS011;5169;50.560;9.714;2024-02-21T01:17:37;121.97;;;43.00;;
10248;SDS011;5169;50.560;9.714;2024-02-21T01:20:05;124.67;;;42.13;;
10248;SDS011;5169;50.560;9.714;2024-02-21T01:22:32;124.90;;;41.97;;
10248;SDS011;5169;50.560;9.714;2024-02-21T01:24:58;124.37;;;41.83;;
10248;SDS011;5169;50.560;9.714;2024-02-21T01:27:23;128.17;;;42.73;;
10248;SDS011;5169;50.560;9.714;2024-02-21T01:29:49;126.47;;;41.73;;
10248;SDS011;5169;50.560;9.714;2024-02-21T01:32:16;128.47;;;42.30;;
10248;SDS011;5169;50.560;9.714;2024-02-21T01:34:42;128.37;;;42.70;;
10248;SDS011;5169;50.560;9.714;2024-02-21T01:37:08;126.33;;;42.70;;
10248;SDS011;5169;50.560;9.714;2024-02-21T01:39:38;128.07;;;43.53;;
10248;SDS011;5169;50.560;9.714;2024-02-21T01:42:06;126.00;;;42.77;;
10248;SDS011;5169;50.560;9.714;2024-02-21T01:44:32;128.17;;;43.10;;
10248;SDS011;5169;50.560;9.714;2024-02-21T01:46:57;126.30;;;43.27;;
10248;SDS011;5169;50.560;9.714;2024-02-21T01:49:23;129.67;;;43.50;;
10248;SDS011;5169;50.560;9.714;2024-02-21T01:51:49;128.20;;;42.70;;
10248;SDS011;5169;50.560;9.714;2024-02-21T01:54:16;128.73;;;42.87;;
10248;SDS011;5169;50.560;9.714;2024-02-21T01:56:48;132.00;;;43.83;;
10248;SDS011;5169;50.560;9.714;2024-02-21T01:59:14;131.10;;;42.87;;
10248;SDS011;5169;50.560;9.714;2024-02-21T02:01:44;125.27;;;42.87;;
10248;SDS011;5169;50.560;9.714;2024-02-21T02:04:11;128.00;;;43.00;;
10248;SDS011;5169;50.560;9.714;2024-02-21T02:06:39;128.60;;;42.83;;
10248;SDS011;5169;50.560;9.714;2024-02-21T02:09:08;139.77;;;44.37;;
10248;SDS011;5169;50.560;9.714;2024-02-21T02:11:34;125.90;;;42.97;;
10248;SDS011;5169;50.560;9.714;2024-02-21T02:14:00;129.00;;;42.93;;
10248;SDS011;5169;50.560;9.714;2024-02-21T02:16:26;125.23;;;42.47;;
10248;SDS011;5169;50.560;9.714;2024-02-21T02:18:52;136.40;;;43.73;;
10248;SDS011;5169;50.560;9.714;2024-02-21T02:21:30;130.17;;;43.37;;
10248;SDS011;5169;50.560;9.714;2024-02-21T02:23:59;125.93;;;42.83;;
10248;SDS011;5169;50.560;9.714;2024-02-21T02:26:25;126.67;;;42.30;;
10248;SDS011;5169;50.560;9.714;2024-02-21T02:28:52;132.33;;;43.40;;
10248;SDS011;5169;50.560;9.714;2024-02-21T02:31:17;125.77;;;42.97;;
10248;SDS011;5169;50.560;9.714;2024-02-21T02:33:43;129.27;;;43.13;;
10248;SDS011;5169;50.560;9.714;2024-02-21T02:36:09;127.33;;;43.27;;
10248;SDS011;5169;50.560;9.714;2024-02-21T02:38:38;128.90;;;43.87;;
10248;SDS011;5169;50.560;9.714;2024-02-21T02:41:03;127.13;;;43.50;;
10248;SDS011;5169;50.560;9.714;2024-02-21T02:43:29;130.50;;;43.47;;
10248;SDS011;5169;50.560;9.714;2024-02-21T02:45:54;128.20;;;42.70;;
10248;SDS011;5169;50.560;9.714;2024-02-21T02:48:20;127.93;;;43.30;;
10248;SDS011;5169;50.560;9.714;2024-02-21T02:50:46;125.03;;;42.40;;
10248;SDS011;5169;50.560;9.714;2024-02-21T02:53:12;129.13;;;43.93;;
10248;SDS011;5169;50.560;9.714;2024-02-21T02:55:38;128.27;;;43.07;;
10248;SDS011;5169;50.560;9.714;2024-02-21T02:58:05;128.80;;;43.23;;
10248;SDS011;5169;50.560;9.714;2024-02-21T03:00:31;123.53;;;42.53;;
10248;SDS011;5169;50.560;9.714;2024-02-21T03:03:01;135.70;;;44.50;;
10248;SDS011;5169;50.560;9.714;2024-02-21T03:05:29;124.60;;;42.37;;
10248;SDS011;5169;50.560;9.714;2024-02-21T03:07:57;132.33;;;43.83;;
10248;SDS011;5169;50.560;9.714;2024-02-21T03:10:23;128.83;;;43.27;;
10248;SDS011;5169;50.560;9.714;2024-02-21T03:12:49;133.80;;;43.90;;
10248;SDS011;5169;50.560;9.714;2024-02-21T03:15:15;129.93;;;44.07;;
10248;SDS011;5169;50.560;9.714;2024-02-21T03:17:43;126.53;;;43.20;;
10248;SDS011;5169;50.560;9.714;2024-02-21T03:20:11;128.03;;;43.13;;
10248;SDS011;5169;50.560;9.714;2024-02-21T03:22:37;137.03;;;44.50;;
10248;SDS011;5169;50.560;9.714;2024-02-21T03:25:05;132.57;;;43.77;;
10248;SDS011;5169;50.560;9.714;2024-02-21T03:27:32;133.07;;;43.93;;
10248;SDS011;5169;50.560;9.714;2024-02-21T03:29:57;129.50;;;43.60;;
10248;SDS011;5169;50.560;9.714;2024-02-21T03:32:23;130.77;;;44.03;;
10248;SDS011;5169;50.560;9.714;2024-02-21T03:34:53;137.27;;;44.57;;
10248;SDS011;5169;50.560;9.714;2024-02-21T03:37:19;131.93;;;43.63;;
10248;SDS011;5169;50.560;9.714;2024-02-21T03:39:47;128.23;;;44.07;;
10248;SDS011;5169;50.560;9.714;2024-02-21T03:42:12;138.43;;;45.10;;
10248;SDS011;5169;50.560;9.714;2024-02-21T03:44:38;138.10;;;46.00;;
10248;SDS011;5169;50.560;9.714;2024-02-21T03:47:04;136.20;;;46.23;;
10248;SDS011;5169;50.560;9.714;2024-02-21T03:49:35;138.77;;;45.70;;
10248;SDS011;5169;50.560;9.714;2024-02-21T03:52:00;136.63;;;44.90;;
10248;SDS011;5169;50.560;9.714;2024-02-21T03:54:26;135.40;;;44.93;;
10248;SDS011;5169;50.560;9.714;2024-02-21T03:56:52;133.60;;;44.53;;
10248;SDS011;5169;50.560;9.714;2024-02-21T03:59:20;138.20;;;45.63;;
10248;SDS011;5169;50.560;9.714;2024-02-21T04:01:45;139.27;;;45.97;;
10248;SDS011;5169;50.560;9.714;2024-02-21T04:04:13;137.57;;;45.67;;
10248;SDS011;5169;50.560;9.714;2024-02-21T04:06:47;138.10;;;45.83;;
10248;SDS011;5169;50.560;9.714;2024-02-21T04:09:13;140.93;;;45.93;;
10248;SDS011;5169;50.560;9.714;2024-02-21T04:11:39;140.03;;;45.90;;
10248;SDS011;5169;50.560;9.714;2024-02-21T04:14:04;136.10;;;44.87;;
10248;SDS011;5169;50.560;9.714;2024-02-21T04:16:32;130.17;;;44.87;;
10248;SDS011;5169;50.560;9.714;2024-02-21T04:19:00;138.73;;;45.00;;
10248;SDS011;5169;50.560;9.714;2024-02-21T04:21:30;131.20;;;44.37;;
10248;SDS011;5169;50.560;9.714;2024-02-21T04:23:59;141.80;;;45.43;;
10248;SDS011;5169;50.560;9.714;2024-02-21T04:26:25;144.70;;;46.23;;
10248;SDS011;5169;50.560;9.714;2024-02-21T04:28:52;136.13;;;44.93;;
10248;SDS011;5169;50.560;9.714;2024-02-21T04:31:18;129.97;;;44.97;;
10248;SDS011;5169;50.560;9.714;2024-02-21T04:33:46;133.20;;;44.97;;
10248;SDS011;5169;50.560;9.714;2024-02-21T04:36:11;135.70;;;45.47;;
10248;SDS011;5169;50.560;9.714;2024-02-21T04:38:39;142.73;;;44.97;;
10248;SDS011;5169;50.560;9.714;2024-02-21T04:41:05;140.97;;;45.57;;
10248;SDS011;5169;50.560;9.714;2024-02-21T04:43:31;136.53;;;45.33;;
10248;SDS011;5169;50.560;9.714;2024-02-21T04:45:56;137.70;;;45.67;;
10248;SDS011;5169;50.560;9.714;2024-02-21T04:48:25;137.23;;;45.10;;
10248;SDS011;5169;50.560;9.714;2024-02-21T04:50:53;137.97;;;45.00;;
10248;SDS011;5169;50.560;9.714;2024-02-21T04:53:18;139.97;;;44.83;;
10248;SDS011;5169;50.560;9.714;2024-02-21T04:55:44;143.23;;;45.87;;
10248;SDS011;5169;50.560;9.714;2024-02-21T04:58:09;139.17;;;45.60;;
10248;SDS011;5169;50.560;9.714;2024-02-21T05:00:35;145.47;;;46.77;;
10248;SDS011;5169;50.560;9.714;2024-02-21T05:03:00;148.70;;;46.23;;
10248;SDS011;5169;50.560;9.714;2024-02-21T05:05:26;132.90;;;44.17;;
10248;SDS011;5169;50.560;9.714;2024-02-21T05:07:56;121.67;;;42.60;;
10248;SDS011;5169;50.560;9.714;2024-02-21T05:10:22;130.07;;;43.90;;
10248;SDS011;5169;50.560;9.714;2024-02-21T05:12:50;130.47;;;44.33;;
10248;SDS011;5169;50.560;9.714;2024-02-21T05:15:16;137.63;;;45.33;;
10248;SDS011;5169;50.560;9.714;2024-02-21T05:17:41;137.17;;;45.40;;
10248;SDS011;5169;50.560;9.714;2024-02-21T05:20:09;142.00;;;46.37;;
10248;SDS011;5169;50.560;9.714;2024-02-21T05:22:35;145.57;;;46.03;;
10248;SDS011;5169;50.560;9.714;2024-02-21T05:25:03;145.67;;;45.97;;
10248;SDS011;5169;50.560;9.714;2024-02-21T05:27:29;141.63;;;45.17;;
10248;SDS011;5169;50.560;9.714;2024-02-21T05:29:56;142.37;;;44.40;;
10248;SDS011;5169;50.560;9.714;2024-02-21T05:32:23;143.53;;;45.27;;
10248;SDS011;5169;50.560;9.714;2024-02-21T05:34:49;148.53;;;45.83;;
10248;SDS011;5169;50.560;9.714;2024-02-21T05:37:17;146.13;;;46.10;;
10248;SDS011;5169;50.560;9.714;2024-02-21T05:39:45;141.20;;;44.87;;
10248;SDS011;5169;50.560;9.714;2024-02-21T05:42:11;142.90;;;46.43;;
10248;SDS011;5169;50.560;9.714;2024-02-21T05:44:38;142.10;;;45.43;;
10248;SDS011;5169;50.560;9.714;2024-02-21T05:47:04;141.07;;;45.70;;
10248;SDS011;5169;50.560;9.714;2024-02-21T05:49:34;141.40;;;44.13;;
10248;SDS011;5169;50.560;9.714;2024-02-21T05:52:00;141.53;;;45.20;;
10248;SDS011;5169;50.560;9.714;2024-02-21T05:54:26;142.37;;;45.00;;
10248;SDS011;5169;50.560;9.714;2024-02-21T05:56:51;144.43;;;46.20;;
10248;SDS011;5169;50.560;9.714;2024-02-21T05:59:18;140.33;;;45.57;;
10248;SDS011;5169;50.560;9.714;2024-02-21T06:01:43;151.70;;;47.47;;
10248;SDS011;5169;50.560;9.714;2024-02-21T06:04:11;144.70;;;45.57;;
10248;SDS011;5169;50.560;9.714;2024-02-21T06:06:37;143.97;;;45.50;;
10248;SDS011;5169;50.560;9.714;2024-02-21T06:09:02;136.17;;;44.90;;
10248;SDS011;5169;50.560;9.714;2024-02-21T06:11:28;127.80;;;43.60;;
10248;SDS011;5169;50.560;9.714;2024-02-21T06:13:54;135.47;;;44.23;;
10248;SDS011;5169;50.560;9.714;2024-02-21T06:16:22;136.77;;;44.43;;
10248;SDS011;5169;50.560;9.714;2024-02-21T06:18:48;153.07;;;46.67;;
10248;SDS011;5169;50.560;9.714;2024-02-21T06:21:16;143.40;;;45.23;;
10248;SDS011;5169;50.560;9.714;2024-02-21T06:23:42;137.53;;;44.60;;
10248;SDS011;5169;50.560;9.714;2024-02-21T06:26:07;149.50;;;46.70;;
10248;SDS011;5169;50.560;9.714;2024-02-21T06:28:33;144.60;;;45.90;;
10248;SDS011;5169;50.560;9.714;2024-02-21T06:30:58;140.27;;;45.27;;
10248;SDS011;5169;50.560;9.714;2024-02-21T06:33:25;139.77;;;45.43;;
10248;SDS011;5169;50.560;9.714;2024-02-21T06:35:51;142.67;;;45.67;;
10248;SDS011;5169;50.560;9.714;2024-02-21T06:38:18;141.80;;;45.57;;
10248;SDS011;5169;50.560;9.714;2024-02-21T06:40:44;139.80;;;44.97;;
10248;SDS011;5169;50.560;9.714;2024-02-21T06:43:14;137.30;;;44.87;;
10248;SDS011;5169;50.560;9.714;2024-02-21T06:45:41;162.27;;;48.20;;
10248;SDS011;5169;50.560;9.714;2024-02-21T06:48:07;166.13;;;48.43;;
10248;SDS011;5169;50.560;9.714;2024-02-21T06:50:33;166.23;;;49.10;;
10248;SDS011;5169;50.560;9.714;2024-02-21T06:52:58;162.33;;;47.80;;
10248;SDS011;5169;50.560;9.714;2024-02-21T06:55:24;168.33;;;48.03;;
10248;SDS011;5169;50.560;9.714;2024-02-21T06:57:52;169.23;;;48.50;;
10248;SDS011;5169;50.560;9.714;2024-02-21T07:00:17;171.27;;;48.57;;
10248;SDS011;5169;50.560;9.714;2024-02-21T07:02:43;169.87;;;49.40;;
10248;SDS011;5169;50.560;9.714;2024-02-21T07:05:09;173.43;;;49.47;;
10248;SDS011;5169;50.560;9.714;2024-02-21T07:07:37;170.23;;;49.23;;
10248;SDS011;5169;50.560;9.714;2024-02-21T07:10:02;167.50;;;48.90;;
10248;SDS011;5169;50.560;9.714;2024-02-21T07:12:29;168.70;;;49.20;;
10248;SDS011;5169;50.560;9.714;2024-02-21T07:14:55;179.00;;;49.47;;
10248;SDS011;5169;50.560;9.714;2024-02-21T07:17:20;172.90;;;49.03;;
10248;SDS011;5169;50.560;9.714;2024-02-21T07:19:46;174.73;;;49.73;;
10248;SDS011;5169;50.560;9.714;2024-02-21T07:22:11;172.23;;;49.17;;
10248;SDS011;5169;50.560;9.714;2024-02-21T07:24:39;161.73;;;48.27;;
10248;SDS011;5169;50.560;9.714;2024-02-21T07:27:07;175.07;;;50.17;;
10248;SDS011;5169;50.560;9.714;2024-02-21T07:29:33;170.27;;;49.07;;
10248;SDS011;5169;50.560;9.714;2024-02-21T07:31:58;173.03;;;49.97;;
10248;SDS011;5169;50.560;9.714;2024-02-21T07:34:24;169.70;;;49.70;;
10248;SDS011;5169;50.560;9.714;2024-02-21T07:36:50;170.23;;;49.93;;
10248;SDS011;5169;50.560;9.714;2024-02-21T07:39:15;181.27;;;50.57;;
10248;SDS011;5169;50.560;9.714;2024-02-21T07:41:43;188.07;;;51.27;;
10248;SDS011;5169;50.560;9.714;2024-02-21T07:44:11;185.70;;;51.53;;
10248;SDS011;5169;50.560;9.714;2024-02-21T07:46:36;197.53;;;52.27;;
10248;SDS011;5169;50.560;9.714;2024-02-21T07:49:04;201.73;;;52.40;;
10248;SDS011;5169;50.560;9.714;2024-02-21T07:51:30;201.10;;;52.23;;
10248;SDS011;5169;50.560;9.714;2024-02-21T07:53:55;198.13;;;51.60;;
10248;SDS011;5169;50.560;9.714;2024-02-21T07:56:24;193.97;;;51.43;;
10248;SDS011;5169;50.560;9.714;2024-02-21T07:58:55;202.70;;;51.87;;
10248;SDS011;5169;50.560;9.714;2024-02-21T08:01:20;194.20;;;51.53;;
10248;SDS011;5169;50.560;9.714;2024-02-21T08:03:49;191.00;;;51.47;;
10248;SDS011;5169;50.560;9.714;2024-02-21T08:06:17;199.60;;;51.93;;
10248;SDS011;5169;50.560;9.714;2024-02-21T08:08:42;194.53;;;51.93;;
10248;SDS011;5169;50.560;9.714;2024-02-21T08:11:08;195.57;;;51.50;;
10248;SDS011;5169;50.560;9.714;2024-02-21T08:13:34;190.40;;;50.97;;
10248;SDS011;5169;50.560;9.714;2024-02-21T08:16:00;188.93;;;50.53;;
10248;SDS011;5169;50.560;9.714;2024-02-21T08:18:28;191.03;;;50.57;;
10248;SDS011;5169;50.560;9.714;2024-02-21T08:20:56;189.87;;;50.23;;
10248;SDS011;5169;50.560;9.714;2024-02-21T08:23:23;183.47;;;49.63;;
10248;SDS011;5169;50.560;9.714;2024-02-21T08:25:53;190.83;;;50.73;;
10248;SDS011;5169;50.560;9.714;2024-02-21T08:28:23;186.77;;;49.70;;
10248;SDS011;5169;50.560;9.714;2024-02-21T08:30:50;189.20;;;50.70;;
10248;SDS011;5169;50.560;9.714;2024-02-21T08:33:17;179.07;;;50.07;;
10248;SDS011;5169;50.560;9.714;2024-02-21T08:35:43;194.63;;;51.30;;
10248;SDS011;5169;50.560;9.714;2024-02-21T08:38:11;194.70;;;50.30;;
10248;SDS011;5169;50.560;9.714;2024-02-21T08:40:37;192.33;;;49.27;;
10248;SDS011;5169;50.560;9.714;2024-02-21T08:43:05;199.60;;;50.57;;
10248;SDS011;5169;50.560;9.714;2024-02-21T08:45:30;195.10;;;51.23;;
10248;SDS011;5169;50.560;9.714;2024-02-21T08:47:56;200.93;;;51.33;;
10248;SDS011;5169;50.560;9.714;2024-02-21T08:50:22;192.57;;;50.57;;
10248;SDS011;5169;50.560;9.714;2024-02-21T08:52:47;196.83;;;50.93;;
10248;SDS011;5169;50.560;9.714;2024-02-21T08:55:13;188.80;;;50.60;;
10248;SDS011;5169;50.560;9.714;2024-02-21T08:57:38;190.63;;;51.07;;
10248;SDS011;5169;50.560;9.714;2024-02-21T09:00:04;194.73;;;50.90;;
10248;SDS011;5169;50.560;9.714;2024-02-21T09:02:40;195.13;;;51.07;;
10248;SDS011;5169;50.560;9.714;2024-02-21T09:05:08;191.97;;;50.77;;
10248;SDS011;5169;50.560;9.714;2024-02-21T09:07:33;202.03;;;51.40;;
10248;SDS011;5169;50.560;9.714;2024-02-21T09:09:59;191.40;;;49.97;;
10248;SDS011;5169;50.560;9.714;2024-02-21T09:12:25;194.53;;;51.63;;
10248;SDS011;5169;50.560;9.714;2024-02-21T09:14:54;193.77;;;51.07;;
10248;SDS011;5169;50.560;9.714;2024-02-21T09:17:20;197.23;;;51.83;;
10248;SDS011;5169;50.560;9.714;2024-02-21T09:19:48;202.07;;;51.73;;
10248;SDS011;5169;50.560;9.714;2024-02-21T09:22:13;201.77;;;52.63;;
10248;SDS011;5169;50.560;9.714;2024-02-21T09:24:39;212.57;;;54.87;;
10248;SDS011;5169;50.560;9.714;2024-02-21T09:27:05;214.20;;;55.50;;
10248;SDS011;5169;50.560;9.714;2024-02-21T09:29:31;209.67;;;54.87;;
10248;SDS011;5169;50.560;9.714;2024-02-21T09:31:58;212.80;;;54.70;;
10248;SDS011;5169;50.560;9.714;2024-02-21T09:34:24;215.50;;;54.60;;
10248;SDS011;5169;50.560;9.714;2024-02-21T09:36:52;214.30;;;54.67;;
10248;SDS011;5169;50.560;9.714;2024-02-21T09:39:20;212.70;;;54.43;;
10248;SDS011;5169;50.560;9.714;2024-02-21T09:41:50;210.03;;;54.80;;
10248;SDS011;5169;50.560;9.714;2024-02-21T09:44:21;208.27;;;54.17;;
10248;SDS011;5169;50.560;9.714;2024-02-21T09:49:26;208.03;;;53.90;;
10248;SDS011;5169;50.560;9.714;2024-02-21T09:52:03;192.53;;;52.03;;
10248;SDS011;5169;50.560;9.714;2024-02-21T09:54:32;200.13;;;53.33;;
10248;SDS011;5169;50.560;9.714;2024-02-21T09:57:00;209.77;;;54.80;;
10248;SDS011;5169;50.560;9.714;2024-02-21T09:59:28;211.43;;;54.70;;
10248;SDS011;5169;50.560;9.714;2024-02-21T10:01:57;212.97;;;53.83;;
10248;SDS011;5169;50.560;9.714;2024-02-21T10:04:25;210.10;;;54.00;;
10248;SDS011;5169;50.560;9.714;2024-02-21T10:06:51;200.90;;;52.43;;
10248;SDS011;5169;50.560;9.714;2024-02-21T10:09:23;207.50;;;54.63;;
10248;SDS011;5169;50.560;9.714;2024-02-21T10:11:52;209.93;;;54.57;;
10248;SDS011;5169;50.560;9.714;2024-02-21T10:14:23;205.73;;;53.77;;
10248;SDS011;5169;50.560;9.714;2024-02-21T10:16:56;211.07;;;55.47;;
10248;SDS011;5169;50.560;9.714;2024-02-21T10:19:25;222.90;;;56.37;;
10248;SDS011;5169;50.560;9.714;2024-02-21T10:22:04;223.03;;;58.23;;
10248;SDS011;5169;50.560;9.714;2024-02-21T10:24:32;235.70;;;61.37;;
10248;SDS011;5169;50.560;9.714;2024-02-21T10:27:08;240.60;;;66.07;;
10248;SDS011;5169;50.560;9.714;2024-02-21T10:29:35;249.10;;;68.43;;
10248;SDS011;5169;50.560;9.714;2024-02-21T10:32:10;249.33;;;68.50;;
10248;SDS011;5169;50.560;9.714;2024-02-21T10:34:37;232.67;;;68.13;;
10248;SDS011;5169;50.560;9.714;2024-02-21T10:37:04;245.87;;;68.30;;
10248;SDS011;5169;50.560;9.714;2024-02-21T10:39:35;254.33;;;68.40;;
10248;SDS011;5169;50.560;9.714;2024-02-21T10:42:03;249.70;;;71.10;;
10248;SDS011;5169;50.560;9.714;2024-02-21T10:44:32;262.77;;;72.90;;
10248;SDS011;5169;50.560;9.714;2024-02-21T10:46:58;256.37;;;70.77;;
10248;SDS011;5169;50.560;9.714;2024-02-21T10:49:30;254.80;;;74.50;;
10248;SDS011;5169;50.560;9.714;2024-02-21T10:52:13;260.50;;;71.07;;
10248;SDS011;5169;50.560;9.714;2024-02-21T10:54:44;251.53;;;69.00;;
10248;SDS011;5169;50.560;9.714;2024-02-21T10:57:12;257.13;;;68.67;;
10248;SDS011;5169;50.560;9.714;2024-02-21T10:59:39;240.43;;;64.90;;
10248;SDS011;5169;50.560;9.714;2024-02-21T11:02:07;238.50;;;65.50;;
10248;SDS011;5169;50.560;9.714;2024-02-21T11:04:33;243.67;;;65.23;;
10248;SDS011;5169;50.560;9.714;2024-02-21T11:07:01;247.63;;;65.17;;
10248;SDS011;5169;50.560;9.714;2024-02-21T11:09:34;241.27;;;66.40;;
10248;SDS011;5169;50.560;9.714;2024-02-21T11:12:03;227.80;;;67.17;;
10248;SDS011;5169;50.560;9.714;2024-02-21T11:14:29;248.83;;;67.10;;
10248;SDS011;5169;50.560;9.714;2024-02-21T11:17:00;244.83;;;67.13;;
10248;SDS011;5169;50.560;9.714;2024-02-21T11:19:39;242.93;;;64.67;;
10248;SDS011;5169;50.560;9.714;2024-02-21T11:22:04;250.40;;;66.20;;
10248;SDS011;5169;50.560;9.714;2024-02-21T11:24:41;242.67;;;64.37;;
10248;SDS011;5169;50.560;9.714;2024-02-21T11:27:21;245.60;;;65.63;;
10248;SDS011;5169;50.560;9.714;2024-02-21T11:29:54;241.27;;;62.40;;
10248;SDS011;5169;50.560;9.714;2024-02-21T11:32:21;251.43;;;65.23;;
10248;SDS011;5169;50.560;9.714;2024-02-21T11:35:02;247.90;;;63.80;;
10248;SDS011;5169;50.560;9.714;2024-02-21T11:37:33;234.97;;;61.87;;
10248;SDS011;5169;50.560;9.714;2024-02-21T11:40:01;250.03;;;62.73;;
10248;SDS011;5169;50.560;9.714;2024-02-21T11:42:28;247.00;;;61.87;;
10248;SDS011;5169;50.560;9.714;2024-02-21T11:44:55;252.17;;;62.60;;
10248;SDS011;5169;50.560;9.714;2024-02-21T11:47:24;254.83;;;63.10;;
10248;SDS011;5169;50.560;9.714;2024-02-21T11:49:50;249.63;;;64.53;;
10248;SDS011;5169;50.560;9.714;2024-02-21T11:52:19;248.50;;;65.90;;
10248;SDS011;5169;50.560;9.714;2024-02-21T11:54:47;256.10;;;66.20;;
10248;SDS011;5169;50.560;9.714;2024-02-21T11:57:18;255.80;;;65.00;;
10248;SDS011;5169;50.560;9.714;2024-02-21T11:59:46;258.13;;;65.20;;
10248;SDS011;5169;50.560;9.714;2024-02-21T12:02:14;257.77;;;65.73;;
10248;SDS011;5169;50.560;9.714;2024-02-21T12:04:40;255.37;;;65.47;;
10248;SDS011;5169;50.560;9.714;2024-02-21T12:07:06;256.53;;;65.20;;
10248;SDS011;5169;50.560;9.714;2024-02-21T12:09:33;260.70;;;66.47;;
10248;SDS011;5169;50.560;9.714;2024-02-21T12:12:05;263.63;;;65.67;;
10248;SDS011;5169;50.560;9.714;2024-02-21T12:14:34;261.27;;;65.80;;
10248;SDS011;5169;50.560;9.714;2024-02-21T12:17:03;264.53;;;67.87;;
10248;SDS011;5169;50.560;9.714;2024-02-21T12:19:32;256.90;;;65.03;;
10248;SDS011;5169;50.560;9.714;2024-02-21T12:22:00;258.83;;;64.97;;
10248;SDS011;5169;50.560;9.714;2024-02-21T12:24:30;254.47;;;63.40;;
10248;SDS011;5169;50.560;9.714;2024-02-21T12:26:58;260.77;;;63.53;;
10248;SDS011;5169;50.560;9.714;2024-02-21T12:29:24;258.60;;;63.27;;
10248;SDS011;5169;50.560;9.714;2024-02-21T12:31:51;262.73;;;66.13;;
10248;SDS011;5169;50.560;9.714;2024-02-21T12:34:17;270.80;;;67.20;;
10248;SDS011;5169;50.560;9.714;2024-02-21T12:36:43;268.00;;;66.63;;
10248;SDS011;5169;50.560;9.714;2024-02-21T12:39:12;258.43;;;64.57;;
10248;SDS011;5169;50.560;9.714;2024-02-21T12:41:41;264.97;;;64.20;;
10248;SDS011;5169;50.560;9.714;2024-02-21T12:44:09;259.20;;;64.67;;
10248;SDS011;5169;50.560;9.714;2024-02-21T12:46:37;257.87;;;63.87;;
10248;SDS011;5169;50.560;9.714;2024-02-21T12:49:08;261.70;;;64.60;;
10248;SDS011;5169;50.560;9.714;2024-02-21T12:51:34;258.40;;;63.17;;
10248;SDS011;5169;50.560;9.714;2024-02-21T12:54:00;258.77;;;62.63;;
10248;SDS011;5169;50.560;9.714;2024-02-21T12:56:26;262.53;;;63.33;;
10248;SDS011;5169;50.560;9.714;2024-02-21T12:58:58;257.97;;;60.70;;
10248;SDS011;5169;50.560;9.714;2024-02-21T13:01:24;254.93;;;60.00;;
10248;SDS011;5169;50.560;9.714;2024-02-21T13:03:52;249.50;;;60.53;;
10248;SDS011;5169;50.560;9.714;2024-02-21T13:06:19;250.67;;;60.70;;
10248;SDS011;5169;50.560;9.714;2024-02-21T13:08:44;250.40;;;59.43;;
10248;SDS011;5169;50.560;9.714;2024-02-21T13:11:11;243.27;;;59.20;;
10248;SDS011;5169;50.560;9.714;2024-02-21T13:13:37;248.67;;;60.03;;
10248;SDS011;5169;50.560;9.714;2024-02-21T13:16:03;251.17;;;60.00;;
10248;SDS011;5169;50.560;9.714;2024-02-21T13:18:29;250.90;;;59.57;;
10248;SDS011;5169;50.560;9.714;2024-02-21T13:21:00;253.27;;;59.17;;
10248;SDS011;5169;50.560;9.714;2024-02-21T13:23:25;228.20;;;57.00;;
10248;SDS011;5169;50.560;9.714;2024-02-21T13:25:51;248.23;;;59.03;;
10248;SDS011;5169;50.560;9.714;2024-02-21T13:28:16;253.97;;;59.93;;
10248;SDS011;5169;50.560;9.714;2024-02-21T13:30:42;253.33;;;59.03;;
10248;SDS011;5169;50.560;9.714;2024-02-21T13:33:08;252.43;;;59.77;;
10248;SDS011;5169;50.560;9.714;2024-02-21T13:35:37;250.80;;;58.80;;
10248;SDS011;5169;50.560;9.714;2024-02-21T13:38:03;249.43;;;58.90;;
10248;SDS011;5169;50.560;9.714;2024-02-21T13:40:32;250.10;;;59.10;;
10248;SDS011;5169;50.560;9.714;2024-02-21T13:42:57;249.53;;;59.33;;
10248;SDS011;5169;50.560;9.714;2024-02-21T13:45:26;252.23;;;58.17;;
10248;SDS011;5169;50.560;9.714;2024-02-21T13:47:51;250.00;;;57.93;;
10248;SDS011;5169;50.560;9.714;2024-02-21T13:50:20;243.93;;;57.73;;
10248;SDS011;5169;50.560;9.714;2024-02-21T13:52:48;240.80;;;57.63;;
10248;SDS011;5169;50.560;9.714;2024-02-21T13:55:14;240.53;;;57.90;;
10248;SDS011;5169;50.560;9.714;2024-02-21T13:57:40;241.47;;;58.13;;
10248;SDS011;5169;50.560;9.714;2024-02-21T14:00:06;240.83;;;58.03;;
10248;SDS011;5169;50.560;9.714;2024-02-21T14:02:35;238.23;;;57.60;;
10248;SDS011;5169;50.560;9.714;2024-02-21T14:05:04;242.57;;;58.43;;
10248;SDS011;5169;50.560;9.714;2024-02-21T14:07:31;239.20;;;58.50;;
10248;SDS011;5169;50.560;9.714;2024-02-21T14:09:58;252.57;;;60.10;;
10248;SDS011;5169;50.560;9.714;2024-02-21T14:12:24;244.73;;;58.53;;
10248;SDS011;5169;50.560;9.714;2024-02-21T14:14:51;243.87;;;58.67;;
10248;SDS011;5169;50.560;9.714;2024-02-21T14:17:22;247.00;;;58.37;;
10248;SDS011;5169;50.560;9.714;2024-02-21T14:19:47;238.10;;;58.57;;
10248;SDS011;5169;50.560;9.714;2024-02-21T14:22:13;232.90;;;58.70;;
10248;SDS011;5169;50.560;9.714;2024-02-21T14:24:38;216.63;;;57.00;;